sensor_id;sensor_type;location;lat;lon;timestamp;temperature;humidity
26479;DHT22;14163;-26.142;27.992;2023-04-24T00:01:29;23.90;52.50
26479;DHT22;14163;-26.142;27.992;2023-04-24T00:03:58;23.90;52.80
26479;DHT22;14163;-26.142;27.992;2023-04-24T00:06:28;23.80;53.00
26479;DHT22;14163;-26.142;27.992;2023-04-24T00:09:00;23.70;53.50
26479;DHT22;14163;-26.142;27.992;2023-04-24T00:11:31;23.70;53.60
26479;DHT22;14163;-26.142;27.992;2023-04-24T00:14:00;23.60;53.70
26479;DHT22;14163;-26.142;27.992;2023-04-24T00:16:29;23.60;53.30
26479;DHT22;14163;-26.142;27.992;2023-04-24T00:18:59;23.60;53.20
26479;DHT22;14163;-26.142;27.992;2023-04-24T00:21:29;23.60;53.60
26479;DHT22;14163;-26.142;27.992;2023-04-24T00:23:59;23.70;53.60
26479;DHT22;14163;-26.142;27.992;2023-04-24T00:26:30;22.20;51.50
26479;DHT22;14163;-26.142;27.992;2023-04-24T00:29:00;23.60;52.60
26479;DHT22;14163;-26.142;27.992;2023-04-24T00:31:29;23.60;52.80
26479;DHT22;14163;-26.142;27.992;2023-04-24T00:34:01;23.60;53.00
26479;DHT22;14163;-26.142;27.992;2023-04-24T00:36:31;23.60;52.90
26479;DHT22;14163;-26.142;27.992;2023-04-24T00:39:00;23.50;52.70
26479;DHT22;14163;-26.142;27.992;2023-04-24T00:41:32;23.50;52.60
26479;DHT22;14163;-26.142;27.992;2023-04-24T00:44:01;23.40;52.20
26479;DHT22;14163;-26.142;27.992;2023-04-24T00:46:31;23.50;52.30
26479;DHT22;14163;-26.142;27.992;2023-04-24T00:49:00;23.50;52.90
26479;DHT22;14163;-26.142;27.992;2023-04-24T00:51:29;23.50;53.00
26479;DHT22;14163;-26.142;27.992;2023-04-24T00:53:59;23.50;53.10
26479;DHT22;14163;-26.142;27.992;2023-04-24T00:56:30;23.50;53.70
26479;DHT22;14163;-26.142;27.992;2023-04-24T00:59:00;23.60;53.30
26479;DHT22;14163;-26.142;27.992;2023-04-24T01:01:29;23.60;53.10
26479;DHT22;14163;-26.142;27.992;2023-04-24T01:03:59;23.60;52.80
26479;DHT22;14163;-26.142;27.992;2023-04-24T01:06:30;23.60;53.20
26479;DHT22;14163;-26.142;27.992;2023-04-24T01:08:59;23.60;52.80
26479;DHT22;14163;-26.142;27.992;2023-04-24T01:11:31;23.60;53.20
26479;DHT22;14163;-26.142;27.992;2023-04-24T01:14:00;23.60;53.40
26479;DHT22;14163;-26.142;27.992;2023-04-24T01:16:30;23.50;53.30
26479;DHT22;14163;-26.142;27.992;2023-04-24T01:18:59;23.40;53.20
26479;DHT22;14163;-26.142;27.992;2023-04-24T01:21:31;23.40;53.20
26479;DHT22;14163;-26.142;27.992;2023-04-24T01:24:06;23.40;53.20
26479;DHT22;14163;-26.142;27.992;2023-04-24T01:26:35;23.40;53.40
26479;DHT22;14163;-26.142;27.992;2023-04-24T01:29:04;23.40;53.20
26479;DHT22;14163;-26.142;27.992;2023-04-24T01:31:34;23.30;53.10
26479;DHT22;14163;-26.142;27.992;2023-04-24T01:34:04;23.30;53.30
26479;DHT22;14163;-26.142;27.992;2023-04-24T01:36:33;23.30;53.30
26479;DHT22;14163;-26.142;27.992;2023-04-24T01:39:05;23.30;53.40
26479;DHT22;14163;-26.142;27.992;2023-04-24T01:41:34;23.30;53.90
26479;DHT22;14163;-26.142;27.992;2023-04-24T01:44:03;23.20;53.90
26479;DHT22;14163;-26.142;27.992;2023-04-24T01:46:33;23.10;54.10
26479;DHT22;14163;-26.142;27.992;2023-04-24T01:49:03;23.10;54.30
26479;DHT22;14163;-26.142;27.992;2023-04-24T01:51:32;23.10;54.60
26479;DHT22;14163;-26.142;27.992;2023-04-24T01:54:03;23.10;54.70
26479;DHT22;14163;-26.142;27.992;2023-04-24T01:56:34;23.10;54.80
26479;DHT22;14163;-26.142;27.992;2023-04-24T01:59:04;23.00;55.00
26479;DHT22;14163;-26.142;27.992;2023-04-24T02:01:36;22.90;55.40
26479;DHT22;14163;-26.142;27.992;2023-04-24T02:04:06;22.90;55.60
26479;DHT22;14163;-26.142;27.992;2023-04-24T02:06:35;22.90;55.80
26479;DHT22;14163;-26.142;27.992;2023-04-24T02:09:06;22.80;55.80
26479;DHT22;14163;-26.142;27.992;2023-04-24T02:11:37;22.70;55.70
26479;DHT22;14163;-26.142;27.992;2023-04-24T02:14:06;22.70;56.00
26479;DHT22;14163;-26.142;27.992;2023-04-24T02:16:35;22.60;56.00
26479;DHT22;14163;-26.142;27.992;2023-04-24T02:19:05;22.60;56.10
26479;DHT22;14163;-26.142;27.992;2023-04-24T02:21:34;22.60;56.00
26479;DHT22;14163;-26.142;27.992;2023-04-24T02:24:05;22.60;56.20
26479;DHT22;14163;-26.142;27.992;2023-04-24T02:26:34;22.60;56.40
26479;DHT22;14163;-26.142;27.992;2023-04-24T02:29:03;22.60;56.70
26479;DHT22;14163;-26.142;27.992;2023-04-24T02:31:32;22.60;56.80
26479;DHT22;14163;-26.142;27.992;2023-04-24T02:34:01;22.50;56.80
26479;DHT22;14163;-26.142;27.992;2023-04-24T02:36:30;22.50;57.00
26479;DHT22;14163;-26.142;27.992;2023-04-24T02:39:00;22.40;57.20
26479;DHT22;14163;-26.142;27.992;2023-04-24T02:41:32;22.30;57.00
26479;DHT22;14163;-26.142;27.992;2023-04-24T02:44:01;22.30;57.20
26479;DHT22;14163;-26.142;27.992;2023-04-24T02:46:30;22.40;57.40
26479;DHT22;14163;-26.142;27.992;2023-04-24T02:48:59;22.30;57.20
26479;DHT22;14163;-26.142;27.992;2023-04-24T02:51:28;22.30;56.90
26479;DHT22;14163;-26.142;27.992;2023-04-24T02:53:58;22.30;56.90
26479;DHT22;14163;-26.142;27.992;2023-04-24T02:56:27;22.30;57.00
26479;DHT22;14163;-26.142;27.992;2023-04-24T02:58:57;22.30;57.20
26479;DHT22;14163;-26.142;27.992;2023-04-24T03:01:27;22.30;57.20
26479;DHT22;14163;-26.142;27.992;2023-04-24T03:03:56;22.30;57.30
26479;DHT22;14163;-26.142;27.992;2023-04-24T03:06:25;22.30;57.10
26479;DHT22;14163;-26.142;27.992;2023-04-24T03:08:55;22.20;57.10
26479;DHT22;14163;-26.142;27.992;2023-04-24T03:11:24;22.20;56.80
26479;DHT22;14163;-26.142;27.992;2023-04-24T03:13:54;22.20;56.90
26479;DHT22;14163;-26.142;27.992;2023-04-24T03:16:24;22.20;56.70
26479;DHT22;14163;-26.142;27.992;2023-04-24T03:18:54;22.20;56.90
26479;DHT22;14163;-26.142;27.992;2023-04-24T03:21:23;22.20;57.10
26479;DHT22;14163;-26.142;27.992;2023-04-24T03:23:53;22.20;57.20
26479;DHT22;14163;-26.142;27.992;2023-04-24T03:26:22;22.20;57.30
26479;DHT22;14163;-26.142;27.992;2023-04-24T03:28:51;22.20;57.40
26479;DHT22;14163;-26.142;27.992;2023-04-24T03:31:21;22.20;57.80
26479;DHT22;14163;-26.142;27.992;2023-04-24T03:33:51;22.20;58.10
26479;DHT22;14163;-26.142;27.992;2023-04-24T03:36:21;22.10;58.20
26479;DHT22;14163;-26.142;27.992;2023-04-24T03:38:50;22.00;58.50
26479;DHT22;14163;-26.142;27.992;2023-04-24T03:41:19;22.00;58.50
26479;DHT22;14163;-26.142;27.992;2023-04-24T03:43:49;22.00;58.10
26479;DHT22;14163;-26.142;27.992;2023-04-24T03:46:19;21.90;57.30
26479;DHT22;14163;-26.142;27.992;2023-04-24T03:48:50;21.80;57.50
26479;DHT22;14163;-26.142;27.992;2023-04-24T03:51:19;21.80;58.10
26479;DHT22;14163;-26.142;27.992;2023-04-24T03:53:49;21.80;58.50
26479;DHT22;14163;-26.142;27.992;2023-04-24T03:56:18;21.80;58.60
26479;DHT22;14163;-26.142;27.992;2023-04-24T03:58:48;21.80;58.80
26479;DHT22;14163;-26.142;27.992;2023-04-24T04:01:17;21.80;58.90
26479;DHT22;14163;-26.142;27.992;2023-04-24T04:03:47;21.80;59.00
26479;DHT22;14163;-26.142;27.992;2023-04-24T04:06:18;21.80;58.90
26479;DHT22;14163;-26.142;27.992;2023-04-24T04:08:48;21.70;58.80
26479;DHT22;14163;-26.142;27.992;2023-04-24T04:11:17;21.80;58.90
26479;DHT22;14163;-26.142;27.992;2023-04-24T04:13:46;21.70;59.00
26479;DHT22;14163;-26.142;27.992;2023-04-24T04:16:16;21.80;58.90
26479;DHT22;14163;-26.142;27.992;2023-04-24T04:18:45;21.80;58.70
26479;DHT22;14163;-26.142;27.992;2023-04-24T04:21:15;21.80;58.60
26479;DHT22;14163;-26.142;27.992;2023-04-24T04:23:45;21.70;58.80
26479;DHT22;14163;-26.142;27.992;2023-04-24T04:26:15;21.70;58.80
26479;DHT22;14163;-26.142;27.992;2023-04-24T04:28:45;21.80;58.70
26479;DHT22;14163;-26.142;27.992;2023-04-24T04:31:15;21.80;58.70
26479;DHT22;14163;-26.142;27.992;2023-04-24T04:33:44;21.80;58.50
26479;DHT22;14163;-26.142;27.992;2023-04-24T04:36:14;21.70;58.60
26479;DHT22;14163;-26.142;27.992;2023-04-24T04:38:47;21.70;59.00
26479;DHT22;14163;-26.142;27.992;2023-04-24T04:41:16;21.70;59.00
26479;DHT22;14163;-26.142;27.992;2023-04-24T04:43:45;21.70;59.20
26479;DHT22;14163;-26.142;27.992;2023-04-24T04:46:14;21.70;59.40
26479;DHT22;14163;-26.142;27.992;2023-04-24T04:48:44;21.70;59.60
26479;DHT22;14163;-26.142;27.992;2023-04-24T04:51:13;21.70;59.70
26479;DHT22;14163;-26.142;27.992;2023-04-24T04:53:42;21.70;59.80
26479;DHT22;14163;-26.142;27.992;2023-04-24T04:56:13;21.60;60.00
26479;DHT22;14163;-26.142;27.992;2023-04-24T04:58:42;21.60;60.30
26479;DHT22;14163;-26.142;27.992;2023-04-24T05:01:11;21.60;60.60
26479;DHT22;14163;-26.142;27.992;2023-04-24T05:03:41;21.70;60.80
26479;DHT22;14163;-26.142;27.992;2023-04-24T05:06:10;21.70;60.90
26479;DHT22;14163;-26.142;27.992;2023-04-24T05:08:39;21.70;61.10
26479;DHT22;14163;-26.142;27.992;2023-04-24T05:11:08;21.70;61.30
26479;DHT22;14163;-26.142;27.992;2023-04-24T05:13:40;21.80;61.80
26479;DHT22;14163;-26.142;27.992;2023-04-24T05:16:10;21.80;62.20
26479;DHT22;14163;-26.142;27.992;2023-04-24T05:18:40;21.80;62.70
26479;DHT22;14163;-26.142;27.992;2023-04-24T05:21:10;21.80;62.50
26479;DHT22;14163;-26.142;27.992;2023-04-24T05:23:39;21.90;62.50
26479;DHT22;14163;-26.142;27.992;2023-04-24T05:26:09;22.00;62.60
26479;DHT22;14163;-26.142;27.992;2023-04-24T05:28:40;22.10;62.60
26479;DHT22;14163;-26.142;27.992;2023-04-24T05:31:09;22.10;61.80
26479;DHT22;14163;-26.142;27.992;2023-04-24T05:33:39;22.20;63.00
26479;DHT22;14163;-26.142;27.992;2023-04-24T05:36:08;22.20;63.30
26479;DHT22;14163;-26.142;27.992;2023-04-24T05:38:37;22.30;63.80
26479;DHT22;14163;-26.142;27.992;2023-04-24T05:41:06;22.30;64.00
26479;DHT22;14163;-26.142;27.992;2023-04-24T05:43:38;22.40;63.50
26479;DHT22;14163;-26.142;27.992;2023-04-24T05:46:07;22.40;63.90
26479;DHT22;14163;-26.142;27.992;2023-04-24T05:48:37;22.50;64.90
26479;DHT22;14163;-26.142;27.992;2023-04-24T05:51:06;22.60;65.60
26479;DHT22;14163;-26.142;27.992;2023-04-24T05:53:35;22.70;66.10
26479;DHT22;14163;-26.142;27.992;2023-04-24T05:56:05;22.70;66.00
26479;DHT22;14163;-26.142;27.992;2023-04-24T05:58:35;22.70;65.70
26479;DHT22;14163;-26.142;27.992;2023-04-24T08:04:24;23.90;60.20
26479;DHT22;14163;-26.142;27.992;2023-04-24T08:06:54;21.00;58.40
26479;DHT22;14163;-26.142;27.992;2023-04-24T08:09:24;21.70;58.00
26479;DHT22;14163;-26.142;27.992;2023-04-24T08:11:53;22.30;59.20
26479;DHT22;14163;-26.142;27.992;2023-04-24T08:14:22;22.70;59.20
26479;DHT22;14163;-26.142;27.992;2023-04-24T08:16:53;23.30;58.80
26479;DHT22;14163;-26.142;27.992;2023-04-24T08:19:25;23.70;56.70
26479;DHT22;14163;-26.142;27.992;2023-04-24T08:21:55;23.50;56.10
26479;DHT22;14163;-26.142;27.992;2023-04-24T08:24:24;23.40;56.50
26479;DHT22;14163;-26.142;27.992;2023-04-24T08:26:53;23.50;57.30
26479;DHT22;14163;-26.142;27.992;2023-04-24T08:29:24;23.30;56.10
26479;DHT22;14163;-26.142;27.992;2023-04-24T08:31:54;23.20;56.60
26479;DHT22;14163;-26.142;27.992;2023-04-24T08:34:25;23.40;57.20
26479;DHT22;14163;-26.142;27.992;2023-04-24T08:36:54;23.70;57.40
26479;DHT22;14163;-26.142;27.992;2023-04-24T08:39:24;23.80;56.20
26479;DHT22;14163;-26.142;27.992;2023-04-24T08:41:54;23.90;56.40
26479;DHT22;14163;-26.142;27.992;2023-04-24T08:44:26;24.10;56.60
26479;DHT22;14163;-26.142;27.992;2023-04-24T08:46:56;24.20;56.50
26479;DHT22;14163;-26.142;27.992;2023-04-24T08:49:28;24.40;56.00
26479;DHT22;14163;-26.142;27.992;2023-04-24T08:51:57;24.50;55.80
26479;DHT22;14163;-26.142;27.992;2023-04-24T08:54:26;24.60;56.20
26479;DHT22;14163;-26.142;27.992;2023-04-24T08:56:59;24.70;56.40
26479;DHT22;14163;-26.142;27.992;2023-04-24T08:59:30;24.80;56.30
26479;DHT22;14163;-26.142;27.992;2023-04-24T09:02:00;24.80;56.40
26479;DHT22;14163;-26.142;27.992;2023-04-24T09:04:34;24.80;56.00
26479;DHT22;14163;-26.142;27.992;2023-04-24T09:07:04;24.80;56.10
26479;DHT22;14163;-26.142;27.992;2023-04-24T09:09:36;24.80;55.50
26479;DHT22;14163;-26.142;27.992;2023-04-24T09:12:07;24.80;55.90
26479;DHT22;14163;-26.142;27.992;2023-04-24T09:14:37;24.60;56.00
26479;DHT22;14163;-26.142;27.992;2023-04-24T09:17:10;24.50;56.30
26479;DHT22;14163;-26.142;27.992;2023-04-24T09:19:41;24.50;56.70
26479;DHT22;14163;-26.142;27.992;2023-04-24T09:22:10;24.90;55.80
26479;DHT22;14163;-26.142;27.992;2023-04-24T09:24:40;25.20;55.40
26479;DHT22;14163;-26.142;27.992;2023-04-24T09:27:12;25.30;55.80
26479;DHT22;14163;-26.142;27.992;2023-04-24T09:29:54;25.40;56.30
26479;DHT22;14163;-26.142;27.992;2023-04-24T09:32:24;25.70;55.50
26479;DHT22;14163;-26.142;27.992;2023-04-24T09:35:12;25.50;55.00
26479;DHT22;14163;-26.142;27.992;2023-04-24T09:37:42;25.50;55.20
26479;DHT22;14163;-26.142;27.992;2023-04-24T09:40:16;25.70;54.30
26479;DHT22;14163;-26.142;27.992;2023-04-24T09:42:46;25.90;53.60
26479;DHT22;14163;-26.142;27.992;2023-04-24T09:45:20;26.00;53.60
26479;DHT22;14163;-26.142;27.992;2023-04-24T09:47:52;26.00;54.10
26479;DHT22;14163;-26.142;27.992;2023-04-24T09:50:25;26.60;54.50
26479;DHT22;14163;-26.142;27.992;2023-04-24T09:52:58;26.80;52.80
26479;DHT22;14163;-26.142;27.992;2023-04-24T09:55:28;26.70;52.80
26479;DHT22;14163;-26.142;27.992;2023-04-24T09:58:00;26.90;52.90
26479;DHT22;14163;-26.142;27.992;2023-04-24T10:00:35;27.30;52.20
26479;DHT22;14163;-26.142;27.992;2023-04-24T10:03:05;27.70;52.00
26479;DHT22;14163;-26.142;27.992;2023-04-24T10:05:37;27.90;51.50
26479;DHT22;14163;-26.142;27.992;2023-04-24T10:08:09;28.80;51.40
26479;DHT22;14163;-26.142;27.992;2023-04-24T10:10:40;29.50;50.40
26479;DHT22;14163;-26.142;27.992;2023-04-24T10:13:10;29.90;50.20
26479;DHT22;14163;-26.142;27.992;2023-04-24T10:15:41;30.30;49.70
26479;DHT22;14163;-26.142;27.992;2023-04-24T10:18:11;30.40;48.30
26479;DHT22;14163;-26.142;27.992;2023-04-24T10:20:42;30.10;48.00
26479;DHT22;14163;-26.142;27.992;2023-04-24T10:23:11;29.80;49.40
26479;DHT22;14163;-26.142;27.992;2023-04-24T10:25:41;30.60;49.50
26479;DHT22;14163;-26.142;27.992;2023-04-24T10:28:11;31.40;48.70
26479;DHT22;14163;-26.142;27.992;2023-04-24T10:30:43;30.60;48.20
26479;DHT22;14163;-26.142;27.992;2023-04-24T10:33:14;31.10;47.70
26479;DHT22;14163;-26.142;27.992;2023-04-24T10:35:47;31.10;47.40
26479;DHT22;14163;-26.142;27.992;2023-04-24T10:38:21;31.60;47.80
26479;DHT22;14163;-26.142;27.992;2023-04-24T10:40:57;31.60;47.20
26479;DHT22;14163;-26.142;27.992;2023-04-24T10:43:27;31.20;48.00
26479;DHT22;14163;-26.142;27.992;2023-04-24T10:46:02;31.40;48.60
26479;DHT22;14163;-26.142;27.992;2023-04-24T10:48:33;30.90;48.90
26479;DHT22;14163;-26.142;27.992;2023-04-24T10:51:04;31.00;48.10
26479;DHT22;14163;-26.142;27.992;2023-04-24T10:53:35;31.20;47.50
26479;DHT22;14163;-26.142;27.992;2023-04-24T10:56:06;31.60;46.80
26479;DHT22;14163;-26.142;27.992;2023-04-24T10:58:43;31.60;44.70
26479;DHT22;14163;-26.142;27.992;2023-04-24T11:01:24;31.60;44.90
26479;DHT22;14163;-26.142;27.992;2023-04-24T11:03:56;31.60;45.00
26479;DHT22;14163;-26.142;27.992;2023-04-24T11:06:33;32.10;45.50
26479;DHT22;14163;-26.142;27.992;2023-04-24T11:09:04;33.10;44.60
26479;DHT22;14163;-26.142;27.992;2023-04-24T11:11:36;33.40;44.60
26479;DHT22;14163;-26.142;27.992;2023-04-24T11:14:07;33.70;43.90
26479;DHT22;14163;-26.142;27.992;2023-04-24T11:16:51;33.70;43.10
26479;DHT22;14163;-26.142;27.992;2023-04-24T11:19:25;33.20;44.10
26479;DHT22;14163;-26.142;27.992;2023-04-24T11:22:02;34.30;43.80
26479;DHT22;14163;-26.142;27.992;2023-04-24T11:24:38;34.00;43.30
26479;DHT22;14163;-26.142;27.992;2023-04-24T11:27:11;34.30;43.50
26479;DHT22;14163;-26.142;27.992;2023-04-24T11:29:43;35.10;42.40
26479;DHT22;14163;-26.142;27.992;2023-04-24T11:32:23;35.50;42.30
26479;DHT22;14163;-26.142;27.992;2023-04-24T11:34:53;35.70;41.10
26479;DHT22;14163;-26.142;27.992;2023-04-24T11:37:26;34.60;41.80
26479;DHT22;14163;-26.142;27.992;2023-04-24T11:39:56;34.40;41.70
26479;DHT22;14163;-26.142;27.992;2023-04-24T11:42:26;33.80;41.10
26479;DHT22;14163;-26.142;27.992;2023-04-24T11:44:56;34.10;41.60
26479;DHT22;14163;-26.142;27.992;2023-04-24T11:47:30;34.10;41.70
26479;DHT22;14163;-26.142;27.992;2023-04-24T11:50:02;34.60;40.60
26479;DHT22;14163;-26.142;27.992;2023-04-24T11:52:36;35.10;40.90
26479;DHT22;14163;-26.142;27.992;2023-04-24T11:55:08;35.50;40.50
26479;DHT22;14163;-26.142;27.992;2023-04-24T11:57:39;35.00;40.50
26479;DHT22;14163;-26.142;27.992;2023-04-24T12:00:17;34.80;40.70
26479;DHT22;14163;-26.142;27.992;2023-04-24T12:02:47;34.70;40.80
26479;DHT22;14163;-26.142;27.992;2023-04-24T12:05:20;35.10;41.30
26479;DHT22;14163;-26.142;27.992;2023-04-24T12:07:51;35.10;41.20
26479;DHT22;14163;-26.142;27.992;2023-04-24T12:10:21;35.20;40.10
26479;DHT22;14163;-26.142;27.992;2023-04-24T12:12:51;34.20;41.20
26479;DHT22;14163;-26.142;27.992;2023-04-24T12:15:21;33.90;41.80
26479;DHT22;14163;-26.142;27.992;2023-04-24T12:17:52;33.30;42.00
26479;DHT22;14163;-26.142;27.992;2023-04-24T12:20:26;32.70;42.80
26479;DHT22;14163;-26.142;27.992;2023-04-24T12:22:59;32.50;43.20
26479;DHT22;14163;-26.142;27.992;2023-04-24T12:25:29;31.90;43.70
26479;DHT22;14163;-26.142;27.992;2023-04-24T12:28:10;31.50;43.30
26479;DHT22;14163;-26.142;27.992;2023-04-24T12:30:47;31.10;43.40
26479;DHT22;14163;-26.142;27.992;2023-04-24T12:33:18;30.70;44.30
26479;DHT22;14163;-26.142;27.992;2023-04-24T12:35:51;31.00;43.40
26479;DHT22;14163;-26.142;27.992;2023-04-24T12:38:32;31.20;43.40
26479;DHT22;14163;-26.142;27.992;2023-04-24T12:41:08;31.60;43.20
26479;DHT22;14163;-26.142;27.992;2023-04-24T12:43:37;31.50;43.20
26479;DHT22;14163;-26.142;27.992;2023-04-24T12:46:06;31.20;42.60
26479;DHT22;14163;-26.142;27.992;2023-04-24T12:48:36;31.20;42.60
26479;DHT22;14163;-26.142;27.992;2023-04-24T12:51:05;31.60;41.10
26479;DHT22;14163;-26.142;27.992;2023-04-24T12:53:37;31.90;42.10
26479;DHT22;14163;-26.142;27.992;2023-04-24T12:56:06;32.00;42.50
26479;DHT22;14163;-26.142;27.992;2023-04-24T12:58:35;32.00;41.80
26479;DHT22;14163;-26.142;27.992;2023-04-24T13:01:04;31.70;41.30
26479;DHT22;14163;-26.142;27.992;2023-04-24T13:03:33;31.60;41.60
26479;DHT22;14163;-26.142;27.992;2023-04-24T13:06:03;31.70;42.50
26479;DHT22;14163;-26.142;27.992;2023-04-24T13:08:33;31.90;41.80
26479;DHT22;14163;-26.142;27.992;2023-04-24T13:11:09;32.00;42.30
26479;DHT22;14163;-26.142;27.992;2023-04-24T13:13:39;32.00;41.60
26479;DHT22;14163;-26.142;27.992;2023-04-24T13:16:09;32.00;42.30
26479;DHT22;14163;-26.142;27.992;2023-04-24T13:18:39;32.10;42.60
26479;DHT22;14163;-26.142;27.992;2023-04-24T13:21:09;32.00;42.30
26479;DHT22;14163;-26.142;27.992;2023-04-24T13:23:38;31.40;42.70
26479;DHT22;14163;-26.142;27.992;2023-04-24T13:26:09;31.50;42.70
26479;DHT22;14163;-26.142;27.992;2023-04-24T13:28:40;31.30;42.70
26479;DHT22;14163;-26.142;27.992;2023-04-24T13:31:09;31.30;42.50
26479;DHT22;14163;-26.142;27.992;2023-04-24T13:33:39;31.40;42.70
26479;DHT22;14163;-26.142;27.992;2023-04-24T13:36:08;31.50;42.00
26479;DHT22;14163;-26.142;27.992;2023-04-24T13:38:38;31.60;42.10
26479;DHT22;14163;-26.142;27.992;2023-04-24T13:41:09;31.60;42.80
26479;DHT22;14163;-26.142;27.992;2023-04-24T13:43:38;31.50;42.90
26479;DHT22;14163;-26.142;27.992;2023-04-24T13:46:08;31.50;42.60
26479;DHT22;14163;-26.142;27.992;2023-04-24T13:48:37;31.40;42.80
26479;DHT22;14163;-26.142;27.992;2023-04-24T13:51:06;31.40;44.00
26479;DHT22;14163;-26.142;27.992;2023-04-24T13:53:36;31.60;43.60
26479;DHT22;14163;-26.142;27.992;2023-04-24T13:56:06;31.40;43.20
26479;DHT22;14163;-26.142;27.992;2023-04-24T13:58:37;31.20;43.30
26479;DHT22;14163;-26.142;27.992;2023-04-24T14:01:07;30.90;44.10
26479;DHT22;14163;-26.142;27.992;2023-04-24T16:41:05;23.90;52.10
26479;DHT22;14163;-26.142;27.992;2023-04-24T16:43:34;24.00;52.70
26479;DHT22;14163;-26.142;27.992;2023-04-24T16:46:04;24.70;52.70
26479;DHT22;14163;-26.142;27.992;2023-04-24T16:48:33;25.60;52.20
26479;DHT22;14163;-26.142;27.992;2023-04-24T16:51:03;26.30;52.30
26479;DHT22;14163;-26.142;27.992;2023-04-24T16:53:32;27.00;52.10
26479;DHT22;14163;-26.142;27.992;2023-04-24T16:56:04;27.40;52.20
26479;DHT22;14163;-26.142;27.992;2023-04-24T16:58:34;27.70;51.70
26479;DHT22;14163;-26.142;27.992;2023-04-24T17:01:03;27.90;51.80
26479;DHT22;14163;-26.142;27.992;2023-04-24T17:03:32;28.10;51.80
26479;DHT22;14163;-26.142;27.992;2023-04-24T17:06:01;28.10;50.70
26479;DHT22;14163;-26.142;27.992;2023-04-24T17:08:30;28.10;51.10
26479;DHT22;14163;-26.142;27.992;2023-04-24T17:11:00;28.20;50.90
26479;DHT22;14163;-26.142;27.992;2023-04-24T17:13:31;28.10;50.80
26479;DHT22;14163;-26.142;27.992;2023-04-24T17:16:00;28.20;51.50
26479;DHT22;14163;-26.142;27.992;2023-04-24T17:18:30;28.20;51.50
26479;DHT22;14163;-26.142;27.992;2023-04-24T17:20:59;28.20;52.40
26479;DHT22;14163;-26.142;27.992;2023-04-24T17:23:28;28.20;52.40
26479;DHT22;14163;-26.142;27.992;2023-04-24T17:25:57;28.10;52.50
26479;DHT22;14163;-26.142;27.992;2023-04-24T17:28:30;28.00;52.60
26479;DHT22;14163;-26.142;27.992;2023-04-24T17:31:00;28.00;52.60
26479;DHT22;14163;-26.142;27.992;2023-04-24T17:33:30;27.90;52.70
26479;DHT22;14163;-26.142;27.992;2023-04-24T17:36:00;27.80;53.10
26479;DHT22;14163;-26.142;27.992;2023-04-24T17:38:29;27.70;53.70
26479;DHT22;14163;-26.142;27.992;2023-04-24T17:40:58;27.60;53.90
26479;DHT22;14163;-26.142;27.992;2023-04-24T17:43:27;27.60;54.20
26479;DHT22;14163;-26.142;27.992;2023-04-24T17:45:58;27.50;54.50
26479;DHT22;14163;-26.142;27.992;2023-04-24T17:48:28;27.50;54.70
26479;DHT22;14163;-26.142;27.992;2023-04-24T17:50:57;27.40;55.00
26479;DHT22;14163;-26.142;27.992;2023-04-24T17:53:26;27.40;55.20
26479;DHT22;14163;-26.142;27.992;2023-04-24T17:55:55;27.30;55.40
26479;DHT22;14163;-26.142;27.992;2023-04-24T17:58:28;27.30;55.60
26479;DHT22;14163;-26.142;27.992;2023-04-24T18:00:59;27.20;55.80
26479;DHT22;14163;-26.142;27.992;2023-04-24T18:03:28;27.20;55.80
26479;DHT22;14163;-26.142;27.992;2023-04-24T18:05:57;27.20;55.90
26479;DHT22;14163;-26.142;27.992;2023-04-24T18:08:26;27.20;56.00
26479;DHT22;14163;-26.142;27.992;2023-04-24T18:10:55;27.10;56.00
26479;DHT22;14163;-26.142;27.992;2023-04-24T18:13:25;27.10;56.10
26479;DHT22;14163;-26.142;27.992;2023-04-24T18:15:54;27.00;56.30
26479;DHT22;14163;-26.142;27.992;2023-04-24T18:18:25;26.90;56.50
26479;DHT22;14163;-26.142;27.992;2023-04-24T18:20:54;26.90;56.60
26479;DHT22;14163;-26.142;27.992;2023-04-24T18:23:24;26.90;56.80
26479;DHT22;14163;-26.142;27.992;2023-04-24T18:25:53;26.90;57.10
26479;DHT22;14163;-26.142;27.992;2023-04-24T18:28:22;26.90;57.00
26479;DHT22;14163;-26.142;27.992;2023-04-24T18:30:51;26.80;56.80
26479;DHT22;14163;-26.142;27.992;2023-04-24T18:33:20;26.70;56.70
26479;DHT22;14163;-26.142;27.992;2023-04-24T18:35:51;26.60;56.80
26479;DHT22;14163;-26.142;27.992;2023-04-24T18:38:21;26.70;56.70
26479;DHT22;14163;-26.142;27.992;2023-04-24T18:40:52;26.60;57.40
26479;DHT22;14163;-26.142;27.992;2023-04-24T18:43:22;26.50;56.80
26479;DHT22;14163;-26.142;27.992;2023-04-24T18:45:51;26.50;56.80
26479;DHT22;14163;-26.142;27.992;2023-04-24T18:48:21;26.40;56.90
26479;DHT22;14163;-26.142;27.992;2023-04-24T18:50:52;26.30;56.90
26479;DHT22;14163;-26.142;27.992;2023-04-24T18:53:22;26.20;56.80
26479;DHT22;14163;-26.142;27.992;2023-04-24T18:55:51;26.20;57.00
26479;DHT22;14163;-26.142;27.992;2023-04-24T18:58:21;26.20;57.00
26479;DHT22;14163;-26.142;27.992;2023-04-24T19:00:50;26.20;56.90
26479;DHT22;14163;-26.142;27.992;2023-04-24T19:03:19;26.20;57.10
26479;DHT22;14163;-26.142;27.992;2023-04-24T19:06:19;26.20;56.80
26479;DHT22;14163;-26.142;27.992;2023-04-24T19:08:48;26.10;57.40
26479;DHT22;14163;-26.142;27.992;2023-04-24T19:11:17;26.10;57.40
26479;DHT22;14163;-26.142;27.992;2023-04-24T19:13:47;26.10;57.30
26479;DHT22;14163;-26.142;27.992;2023-04-24T19:16:16;26.20;57.20
26479;DHT22;14163;-26.142;27.992;2023-04-24T19:18:45;26.10;57.00
26479;DHT22;14163;-26.142;27.992;2023-04-24T19:21:14;26.10;56.80
26479;DHT22;14163;-26.142;27.992;2023-04-24T19:23:45;26.00;56.80
26479;DHT22;14163;-26.142;27.992;2023-04-24T19:26:17;26.00;56.80
26479;DHT22;14163;-26.142;27.992;2023-04-24T19:28:48;26.00;56.50
26479;DHT22;14163;-26.142;27.992;2023-04-24T19:31:19;25.90;56.20
26479;DHT22;14163;-26.142;27.992;2023-04-24T19:33:48;25.80;56.40
26479;DHT22;14163;-26.142;27.992;2023-04-24T19:36:17;25.80;56.40
26479;DHT22;14163;-26.142;27.992;2023-04-24T19:38:48;25.80;56.20
26479;DHT22;14163;-26.142;27.992;2023-04-24T19:41:18;25.80;56.40
26479;DHT22;14163;-26.142;27.992;2023-04-24T19:43:47;25.80;56.10
26479;DHT22;14163;-26.142;27.992;2023-04-24T19:46:16;25.80;56.20
26479;DHT22;14163;-26.142;27.992;2023-04-24T19:48:45;25.70;56.40
26479;DHT22;14163;-26.142;27.992;2023-04-24T19:51:15;25.60;56.50
26479;DHT22;14163;-26.142;27.992;2023-04-24T19:53:44;25.60;56.60
26479;DHT22;14163;-26.142;27.992;2023-04-24T19:56:16;25.60;56.30
26479;DHT22;14163;-26.142;27.992;2023-04-24T19:58:45;25.60;56.20
26479;DHT22;14163;-26.142;27.992;2023-04-24T20:01:14;25.60;56.10
26479;DHT22;14163;-26.142;27.992;2023-04-24T20:03:44;25.60;56.30